createdAt,value
2023-03-07T00:01:09.340Z,14.70
2023-03-07T00:03:37.578Z,13.90
2023-03-07T00:06:06.244Z,15.11
2023-03-07T00:08:33.700Z,14.88
2023-03-07T00:11:06.223Z,14.95
2023-03-07T00:13:33.155Z,15.11
2023-03-07T00:16:04.573Z,15.40
2023-03-07T00:18:33.193Z,14.62
2023-03-07T00:21:04.092Z,15.06
2023-03-07T00:23:30.958Z,15.33
2023-03-07T00:26:02.581Z,15.33
2023-03-07T00:28:29.340Z,15.03
2023-03-07T00:31:01.656Z,14.95
2023-03-07T00:33:28.803Z,15.19
2023-03-07T00:36:02.765Z,14.90
2023-03-07T00:38:35.986Z,15.18
2023-03-07T00:41:08.587Z,15.51
2023-03-07T00:43:37.396Z,15.14
2023-03-07T00:46:04.921Z,15.96
2023-03-07T00:48:34.601Z,15.55
2023-03-07T00:51:02.758Z,15.55
2023-03-07T00:53:29.590Z,15.65
2023-03-07T00:56:01.361Z,15.78
2023-03-07T00:58:28.939Z,15.30
2023-03-07T01:00:58.611Z,15.86
2023-03-07T01:03:25.511Z,16.29
2023-03-07T01:05:52.388Z,16.63
2023-03-07T01:08:19.447Z,17.08
2023-03-07T01:10:46.670Z,16.38
2023-03-07T01:13:14.739Z,17.11
2023-03-07T01:15:42.036Z,17.61
2023-03-07T01:18:10.094Z,18.46
2023-03-07T01:20:37.463Z,18.39
2023-03-07T01:23:05.250Z,19.15
2023-03-07T01:25:33.027Z,19.47
2023-03-07T01:28:00.718Z,19.68
2023-03-07T01:30:27.437Z,19.40
2023-03-07T01:32:58.161Z,18.63
2023-03-07T01:35:53.302Z,19.29
2023-03-07T01:38:20.479Z,18.16
2023-03-07T01:40:48.204Z,18.00
2023-03-07T01:43:34.504Z,18.44
2023-03-07T01:46:32.728Z,18.49
2023-03-07T01:49:27.103Z,18.95
2023-03-07T01:52:27.983Z,18.72
2023-03-07T01:54:56.765Z,18.32
2023-03-07T01:57:26.904Z,18.42
2023-03-07T01:59:58.567Z,19.59
2023-03-07T02:02:25.362Z,20.34
2023-03-07T02:04:54.870Z,19.58
2023-03-07T02:07:25.551Z,19.51
2023-03-07T02:09:54.118Z,18.73
2023-03-07T02:12:23.116Z,19.58
2023-03-07T02:14:50.053Z,19.32
2023-03-07T02:17:16.974Z,19.25
2023-03-07T02:20:15.726Z,19.14
2023-03-07T02:22:42.600Z,18.50
2023-03-07T02:25:32.481Z,19.53
2023-03-07T02:28:02.038Z,19.67
2023-03-07T02:30:28.963Z,19.82
2023-03-07T02:32:55.653Z,19.15
2023-03-07T02:35:29.640Z,19.77
2023-03-07T02:37:57.969Z,19.34
2023-03-07T02:40:30.018Z,19.81
2023-03-07T02:43:00.334Z,19.61
2023-03-07T02:45:30.046Z,19.89
2023-03-07T02:47:56.787Z,19.27
2023-03-07T02:50:23.929Z,19.76
2023-03-07T02:52:51.923Z,19.74
2023-03-07T02:55:25.870Z,19.71
2023-03-07T02:57:53.210Z,20.04
2023-03-07T03:00:20.655Z,20.30
2023-03-07T03:02:48.434Z,20.96
2023-03-07T03:05:15.174Z,20.81
2023-03-07T03:07:44.782Z,20.72
2023-03-07T03:10:14.359Z,21.09
2023-03-07T03:12:41.528Z,21.53
2023-03-07T03:15:15.345Z,20.84
2023-03-07T03:17:42.421Z,21.02
2023-03-07T03:20:12.403Z,21.27
2023-03-07T03:22:42.074Z,21.07
2023-03-07T03:25:10.952Z,21.15
2023-03-07T03:27:38.528Z,21.44
2023-03-07T03:30:10.806Z,21.13
2023-03-07T03:32:38.655Z,20.88
2023-03-07T03:35:06.196Z,21.15
2023-03-07T03:37:33.580Z,20.99
2023-03-07T03:40:00.344Z,21.58
2023-03-07T03:42:27.731Z,21.57
2023-03-07T03:44:54.414Z,20.90
2023-03-07T03:47:21.138Z,21.44
2023-03-07T03:49:48.219Z,21.41
2023-03-07T03:52:14.948Z,21.40
2023-03-07T03:54:42.056Z,21.19
2023-03-07T03:57:09.234Z,21.08
2023-03-07T03:59:36.668Z,21.47
2023-03-07T04:02:03.628Z,21.50
2023-03-07T04:04:30.550Z,21.71
2023-03-07T04:06:57.642Z,21.58
2023-03-07T04:09:24.655Z,21.58
2023-03-07T04:11:53.034Z,21.99
2023-03-07T04:14:20.162Z,21.55
2023-03-07T04:16:47.168Z,21.37
2023-03-07T04:19:14.375Z,21.70
2023-03-07T04:21:41.494Z,21.92
2023-03-07T04:24:10.538Z,21.15
2023-03-07T04:26:37.315Z,21.74
2023-03-07T04:29:04.151Z,21.42
2023-03-07T04:31:30.951Z,21.42
2023-03-07T04:33:58.213Z,21.92
2023-03-07T04:36:25.278Z,21.33
2023-03-07T04:38:52.033Z,20.85
2023-03-07T04:41:23.859Z,21.91
2023-03-07T04:43:56.818Z,20.68
2023-03-07T04:46:23.826Z,20.81
2023-03-07T04:48:50.664Z,20.70
2023-03-07T04:51:17.588Z,20.68
2023-03-07T04:53:44.710Z,20.67
2023-03-07T04:56:11.454Z,20.57
2023-03-07T04:58:39.010Z,21.73
2023-03-07T05:01:06.147Z,21.96
2023-03-07T05:03:33.273Z,21.48
2023-03-07T05:06:05.171Z,21.70
2023-03-07T05:08:33.523Z,20.93
2023-03-07T05:11:00.793Z,21.02
2023-03-07T05:13:27.712Z,21.72
2023-03-07T05:15:55.988Z,21.03
2023-03-07T05:18:23.149Z,21.61
2023-03-07T05:20:49.882Z,20.41
2023-03-07T05:23:17.316Z,20.46
2023-03-07T05:25:44.082Z,20.65
2023-03-07T05:28:11.771Z,20.40
2023-03-07T05:30:38.819Z,20.98
2023-03-07T05:33:06.911Z,20.13
2023-03-07T05:35:33.764Z,20.48
2023-03-07T05:38:00.742Z,20.35
2023-03-07T05:40:27.885Z,20.74
2023-03-07T05:42:54.729Z,20.64
2023-03-07T05:45:21.422Z,19.98
2023-03-07T05:47:49.472Z,20.67
2023-03-07T05:50:16.363Z,20.46
2023-03-07T05:52:43.409Z,20.57
2023-03-07T05:55:10.378Z,20.49
2023-03-07T05:57:37.354Z,20.39
2023-03-07T06:00:05.765Z,21.59
2023-03-07T06:02:32.581Z,21.83
2023-03-07T06:04:59.373Z,23.54
2023-03-07T06:07:27.396Z,22.08
2023-03-07T06:09:54.363Z,22.87
2023-03-07T06:12:22.600Z,24.87
2023-03-07T06:14:49.784Z,22.58
2023-03-07T06:17:16.697Z,22.35
2023-03-07T06:19:46.260Z,21.27
2023-03-07T06:22:13.077Z,22.34
2023-03-07T06:24:40.494Z,22.79
2023-03-07T06:27:07.594Z,25.95
2023-03-07T06:29:38.201Z,35.90
2023-03-07T06:32:05.299Z,35.65
2023-03-07T06:34:32.029Z,34.46
2023-03-07T06:36:59.106Z,28.23
2023-03-07T06:39:25.910Z,24.22
2023-03-07T06:41:53.046Z,22.73
2023-03-07T06:44:20.201Z,22.28
2023-03-07T06:46:47.274Z,26.65
2023-03-07T06:49:17.073Z,26.78
2023-03-07T06:51:43.970Z,23.91
2023-03-07T06:54:11.094Z,23.01
2023-03-07T06:56:38.581Z,23.64
2023-03-07T06:59:05.736Z,22.91
2023-03-07T07:01:33.016Z,22.26
2023-03-07T07:04:00.099Z,22.66
2023-03-07T07:06:27.222Z,21.47
2023-03-07T07:08:57.911Z,20.83
2023-03-07T07:11:24.901Z,21.19
2023-03-07T07:13:51.657Z,21.06
2023-03-07T07:16:18.667Z,20.91
2023-03-07T07:18:49.644Z,21.25
2023-03-07T07:21:16.876Z,20.91
2023-03-07T07:23:43.644Z,20.26
2023-03-07T07:26:10.396Z,21.06
2023-03-07T07:28:37.453Z,22.37
2023-03-07T07:31:05.489Z,20.80
2023-03-07T07:33:32.703Z,20.38
2023-03-07T07:35:59.481Z,20.11
2023-03-07T07:38:26.663Z,19.29
2023-03-07T07:40:53.361Z,18.30
2023-03-07T07:43:21.468Z,17.98
2023-03-07T07:45:50.215Z,19.65
2023-03-07T07:48:19.857Z,19.67
2023-03-07T07:50:46.544Z,19.01
2023-03-07T07:53:14.038Z,18.82
2023-03-07T07:55:41.320Z,18.23
2023-03-07T07:58:08.357Z,17.92
2023-03-07T08:00:35.232Z,18.30
2023-03-07T08:03:02.351Z,18.27
2023-03-07T08:05:31.860Z,18.45
2023-03-07T08:08:01.716Z,18.81
2023-03-07T08:10:28.693Z,18.75
2023-03-07T08:12:55.702Z,18.37
2023-03-07T08:15:23.190Z,18.70
2023-03-07T08:17:50.029Z,19.72
2023-03-07T08:20:17.286Z,19.26
2023-03-07T08:22:44.457Z,18.65
2023-03-07T08:25:17.923Z,18.41
2023-03-07T08:27:47.563Z,18.58
2023-03-07T08:30:14.570Z,18.34
2023-03-07T08:32:41.494Z,18.63
2023-03-07T08:35:08.257Z,18.56
2023-03-07T08:37:35.037Z,19.11
2023-03-07T08:40:02.593Z,18.52
2023-03-07T08:42:30.815Z,18.68
2023-03-07T08:44:58.886Z,17.97
2023-03-07T08:47:25.776Z,18.13
2023-03-07T08:49:52.914Z,18.23
2023-03-07T08:52:22.373Z,17.95
2023-03-07T08:54:49.548Z,18.48
2023-03-07T08:57:16.241Z,18.62
2023-03-07T08:59:48.392Z,17.96
2023-03-07T09:02:15.389Z,17.83
2023-03-07T09:04:42.208Z,17.47
2023-03-07T09:07:11.044Z,17.61
2023-03-07T09:09:37.793Z,17.60
2023-03-07T09:12:06.790Z,17.61
2023-03-07T09:14:36.381Z,17.90
2023-03-07T09:17:03.323Z,17.80
2023-03-07T09:19:31.133Z,17.65
2023-03-07T09:21:58.529Z,17.60
2023-03-07T09:24:28.206Z,17.65
2023-03-07T09:26:55.339Z,17.85
2023-03-07T09:29:22.940Z,18.06
2023-03-07T09:31:49.787Z,17.76
2023-03-07T09:34:16.616Z,17.64
2023-03-07T09:36:43.373Z,17.69
2023-03-07T09:39:10.109Z,18.05
2023-03-07T09:41:55.938Z,17.84
2023-03-07T09:44:47.244Z,17.68
2023-03-07T09:47:22.602Z,17.61
2023-03-07T09:49:50.612Z,17.74
2023-03-07T09:52:26.631Z,18.07
2023-03-07T09:54:59.856Z,18.15
2023-03-07T09:57:29.655Z,18.40
2023-03-07T10:00:06.117Z,18.68
2023-03-07T10:03:02.638Z,18.66
2023-03-07T10:05:51.134Z,18.45
2023-03-07T10:08:28.639Z,18.49
2023-03-07T10:11:20.340Z,18.32
2023-03-07T10:14:05.309Z,18.50
2023-03-07T10:16:41.989Z,18.23
2023-03-07T10:19:50.558Z,18.29
2023-03-07T10:22:32.742Z,18.06
2023-03-07T10:25:33.964Z,18.49
2023-03-07T10:28:11.154Z,18.63
2023-03-07T10:30:52.338Z,18.68
2023-03-07T10:33:20.161Z,18.99
2023-03-07T10:36:10.550Z,19.26
2023-03-07T10:38:44.276Z,19.48
2023-03-07T10:41:15.886Z,19.19
2023-03-07T10:43:43.210Z,19.98
2023-03-07T10:46:26.171Z,19.59
2023-03-07T10:49:17.059Z,19.19
2023-03-07T10:52:03.889Z,19.53
2023-03-07T10:54:34.651Z,20.20
2023-03-07T10:57:02.701Z,19.22
2023-03-07T10:59:29.866Z,19.66
2023-03-07T11:02:02.703Z,19.29
2023-03-07T11:04:30.265Z,19.15
2023-03-07T11:07:20.250Z,18.94
2023-03-07T11:09:51.441Z,19.21
2023-03-07T11:12:22.597Z,19.39
2023-03-07T11:14:50.936Z,19.59
2023-03-07T11:17:25.080Z,19.43
2023-03-07T11:19:56.580Z,19.22
2023-03-07T11:22:31.482Z,19.93
2023-03-07T11:25:17.605Z,19.22
2023-03-07T11:27:55.283Z,19.33
2023-03-07T11:30:23.549Z,19.40
2023-03-07T11:32:54.771Z,19.28
2023-03-07T11:35:23.439Z,18.66
2023-03-07T11:38:31.143Z,19.54
2023-03-07T11:41:11.410Z,18.84
2023-03-07T11:43:44.120Z,19.53
2023-03-07T11:46:17.120Z,19.19
2023-03-07T11:49:06.352Z,18.62
2023-03-07T11:52:01.250Z,19.26
2023-03-07T11:54:40.763Z,18.99
2023-03-07T11:57:15.750Z,19.41
2023-03-07T12:00:01.937Z,19.24
2023-03-07T12:02:41.204Z,18.99
2023-03-07T12:05:38.334Z,19.76
2023-03-07T12:08:13.904Z,19.93
2023-03-07T12:10:58.718Z,19.33
2023-03-07T12:13:50.314Z,19.34
2023-03-07T12:16:37.789Z,19.59
2023-03-07T12:19:21.290Z,19.09
2023-03-07T12:22:12.384Z,19.04
2023-03-07T12:24:45.544Z,19.06
2023-03-07T12:27:20.509Z,19.00
2023-03-07T12:29:56.929Z,18.71
2023-03-07T12:32:25.239Z,18.37
2023-03-07T12:34:59.130Z,18.08
2023-03-07T12:37:30.466Z,18.03
2023-03-07T12:40:02.521Z,18.16
2023-03-07T12:42:42.310Z,17.64
2023-03-07T12:45:17.934Z,17.32
2023-03-07T12:47:53.603Z,16.42
2023-03-07T12:50:59.738Z,16.96
2023-03-07T12:53:41.054Z,16.52
2023-03-07T12:56:45.083Z,15.86
2023-03-07T12:59:13.509Z,16.32
2023-03-07T13:02:08.736Z,16.02
2023-03-07T13:04:36.694Z,15.18
2023-03-07T13:07:13.974Z,16.06
2023-03-07T13:09:42.214Z,16.12
2023-03-07T13:12:17.826Z,16.14
2023-03-07T13:14:51.762Z,15.49
2023-03-07T13:17:34.283Z,15.56
2023-03-07T13:20:28.014Z,13.83
2023-03-07T13:23:00.900Z,15.25
2023-03-07T13:25:27.938Z,15.42
2023-03-07T13:28:01.305Z,15.93
2023-03-07T13:30:33.138Z,15.78
2023-03-07T13:33:22.779Z,15.09
2023-03-07T13:35:59.926Z,14.58
2023-03-07T13:38:45.317Z,14.39
2023-03-07T13:41:12.855Z,14.49
2023-03-07T13:43:46.665Z,12.82
2023-03-07T13:46:38.670Z,12.23
2023-03-07T13:49:06.894Z,12.21
2023-03-07T13:51:34.289Z,12.24
2023-03-07T13:54:06.458Z,11.88
2023-03-07T13:56:37.763Z,11.35
2023-03-07T13:59:10.440Z,11.13
2023-03-07T14:01:40.287Z,10.99
2023-03-07T14:04:40.526Z,10.50
2023-03-07T14:07:15.413Z,10.73
2023-03-07T14:09:49.811Z,11.01
2023-03-07T14:12:48.398Z,10.78
2023-03-07T14:15:23.824Z,11.50
2023-03-07T14:18:20.084Z,11.83
2023-03-07T14:21:03.685Z,12.08
2023-03-07T14:24:14.199Z,11.92
2023-03-07T14:26:43.521Z,11.78
2023-03-07T14:29:29.298Z,11.40
2023-03-07T14:31:58.551Z,10.96
2023-03-07T14:34:35.591Z,11.76
2023-03-07T14:37:05.405Z,11.57
2023-03-07T14:40:01.576Z,11.72
2023-03-07T14:42:42.498Z,11.59
2023-03-07T14:45:26.741Z,11.40
2023-03-07T14:48:27.144Z,12.28
2023-03-07T14:50:53.896Z,12.24
2023-03-07T14:53:27.885Z,11.92
2023-03-07T14:55:55.167Z,12.19
2023-03-07T14:58:25.581Z,12.59
2023-03-07T15:01:00.144Z,12.15
2023-03-07T15:03:27.166Z,12.16
2023-03-07T15:05:55.756Z,11.90
2023-03-07T15:08:24.093Z,11.50
2023-03-07T15:10:58.968Z,11.56
2023-03-07T15:13:50.699Z,11.27
2023-03-07T15:16:36.900Z,10.68
2023-03-07T15:19:34.457Z,10.48
2023-03-07T15:22:02.139Z,10.48
2023-03-07T15:24:39.279Z,10.01
2023-03-07T15:27:06.344Z,9.54
2023-03-07T15:29:34.149Z,9.93
2023-03-07T15:32:02.555Z,9.77
2023-03-07T15:34:36.849Z,9.74
2023-03-07T15:37:26.418Z,10.54
2023-03-07T15:40:11.188Z,10.82
2023-03-07T15:42:54.288Z,10.94
2023-03-07T15:45:40.551Z,11.68
2023-03-07T15:48:36.976Z,11.69
2023-03-07T15:51:06.222Z,11.39
2023-03-07T15:53:40.276Z,12.34
2023-03-07T15:56:32.782Z,12.27
2023-03-07T15:59:04.379Z,11.89
2023-03-07T16:01:31.593Z,12.03
2023-03-07T16:03:59.801Z,12.17
2023-03-07T16:06:43.226Z,13.52
2023-03-07T16:09:18.138Z,12.83
2023-03-07T16:11:45.904Z,13.00
2023-03-07T16:14:22.557Z,13.32
2023-03-07T16:16:49.377Z,14.42
2023-03-07T16:19:16.318Z,14.67
2023-03-07T16:21:43.178Z,14.67
2023-03-07T16:24:10.486Z,14.79
2023-03-07T16:26:37.270Z,15.45
2023-03-07T16:29:04.303Z,14.89
2023-03-07T16:31:31.129Z,14.00
2023-03-07T16:33:58.391Z,13.59
2023-03-07T16:36:25.487Z,14.06
2023-03-07T16:38:53.676Z,14.27
2023-03-07T16:41:21.094Z,12.81
2023-03-07T16:43:57.377Z,13.02
2023-03-07T16:46:24.636Z,12.26
2023-03-07T16:48:51.841Z,13.17
2023-03-07T16:51:23.299Z,12.90
2023-03-07T16:53:50.137Z,12.80
2023-03-07T16:56:24.583Z,14.07
2023-03-07T16:58:51.332Z,13.90
2023-03-07T17:01:18.211Z,14.32
2023-03-07T17:03:45.076Z,14.37
2023-03-07T17:06:16.161Z,14.34
2023-03-07T17:08:44.709Z,14.86
2023-03-07T17:11:24.581Z,15.44
2023-03-07T17:13:53.069Z,14.95
2023-03-07T17:16:19.946Z,14.88
2023-03-07T17:18:46.816Z,15.19
2023-03-07T17:21:18.327Z,14.72
2023-03-07T17:23:45.573Z,14.56
2023-03-07T17:26:22.226Z,14.93
2023-03-07T17:28:49.184Z,14.29
2023-03-07T17:31:15.978Z,13.73
2023-03-07T17:33:46.250Z,13.50
2023-03-07T17:36:13.361Z,12.25
2023-03-07T17:38:42.908Z,11.72
2023-03-07T17:41:09.649Z,11.14
2023-03-07T17:43:37.678Z,11.48
2023-03-07T17:46:08.452Z,10.62
2023-03-07T17:48:38.371Z,9.33
2023-03-07T17:51:11.194Z,10.08
2023-03-07T17:53:38.102Z,10.39
2023-03-07T17:56:09.519Z,9.91
2023-03-07T17:58:36.726Z,9.37
2023-03-07T18:01:03.526Z,8.50
2023-03-07T18:03:31.695Z,8.58
2023-03-07T18:05:58.814Z,9.74
2023-03-07T18:08:28.128Z,9.69
2023-03-07T18:10:55.024Z,10.15
2023-03-07T18:13:21.890Z,10.64
2023-03-07T18:15:49.217Z,10.44
2023-03-07T18:18:16.016Z,10.09
2023-03-07T18:20:42.838Z,10.08
2023-03-07T18:23:09.926Z,10.03
2023-03-07T18:25:38.391Z,9.27
2023-03-07T18:28:05.466Z,9.15
2023-03-07T18:30:35.117Z,8.95
2023-03-07T18:33:02.464Z,9.24
2023-03-07T18:35:29.706Z,8.61
2023-03-07T18:37:58.105Z,8.81
2023-03-07T18:40:26.172Z,10.08
2023-03-07T18:42:53.383Z,9.08
2023-03-07T18:45:20.709Z,8.20
2023-03-07T18:47:47.454Z,7.50
2023-03-07T18:50:14.682Z,7.53
2023-03-07T18:52:42.323Z,6.47
2023-03-07T18:55:09.465Z,5.91
2023-03-07T18:57:36.921Z,5.19
2023-03-07T19:00:04.029Z,4.35
2023-03-07T19:02:33.496Z,3.93
2023-03-07T19:05:00.219Z,4.27
2023-03-07T19:07:27.155Z,4.53
2023-03-07T19:09:55.027Z,4.73
2023-03-07T19:12:22.180Z,4.77
2023-03-07T19:14:48.932Z,4.84
2023-03-07T19:17:16.071Z,4.61
2023-03-07T19:19:43.033Z,4.71
2023-03-07T19:22:09.733Z,5.00
2023-03-07T19:24:38.614Z,5.00
2023-03-07T19:27:07.139Z,4.91
2023-03-07T19:29:34.139Z,5.12
2023-03-07T19:32:01.327Z,5.06
2023-03-07T19:34:29.399Z,5.14
2023-03-07T19:36:59.000Z,5.48
2023-03-07T19:39:25.754Z,5.43
2023-03-07T19:41:52.505Z,6.03
2023-03-07T19:44:19.259Z,5.96
2023-03-07T19:46:46.143Z,6.01
2023-03-07T19:49:13.847Z,6.15
2023-03-07T19:51:40.631Z,6.35
2023-03-07T19:54:07.836Z,6.10
2023-03-07T19:56:35.865Z,6.30
2023-03-07T19:59:02.886Z,6.59
2023-03-07T20:01:32.035Z,6.81
2023-03-07T20:03:58.929Z,7.19
2023-03-07T20:06:27.488Z,7.19
2023-03-07T20:08:54.934Z,7.45
2023-03-07T20:11:26.417Z,7.33
2023-03-07T20:13:57.328Z,7.18
2023-03-07T20:16:24.189Z,6.87
2023-03-07T20:18:52.124Z,7.32
2023-03-07T20:21:19.379Z,7.17
2023-03-07T20:23:46.500Z,7.15
2023-03-07T20:26:15.390Z,7.21
2023-03-07T20:28:43.156Z,7.36
2023-03-07T20:31:09.947Z,7.16
2023-03-07T20:33:41.602Z,7.32
2023-03-07T20:36:11.000Z,7.42
2023-03-07T20:38:38.058Z,8.04
2023-03-07T20:41:07.471Z,7.74
2023-03-07T20:43:34.261Z,7.39
2023-03-07T20:46:06.514Z,6.55
2023-03-07T20:52:28.977Z,6.60
2023-03-07T20:54:56.238Z,7.17
2023-03-07T20:57:23.341Z,7.21
2023-03-07T20:59:50.050Z,7.89
2023-03-07T21:02:17.839Z,7.71
2023-03-07T21:04:44.600Z,7.90
2023-03-07T21:07:16.210Z,8.07
2023-03-07T21:09:43.158Z,8.03
2023-03-07T21:12:10.109Z,8.55
2023-03-07T21:14:36.920Z,8.59
2023-03-07T21:17:03.714Z,8.78
2023-03-07T21:19:30.459Z,8.71
2023-03-07T21:21:57.903Z,9.37
2023-03-07T21:24:26.124Z,9.32
2023-03-07T21:26:59.865Z,9.75
2023-03-07T21:29:27.351Z,9.25
2023-03-07T21:31:54.512Z,9.97
2023-03-07T21:34:21.700Z,9.49
2023-03-07T21:36:48.504Z,10.31
2023-03-07T21:39:15.328Z,10.66
2023-03-07T21:41:44.410Z,11.06
2023-03-07T21:44:13.127Z,10.75
2023-03-07T21:46:43.425Z,11.12
2023-03-07T21:49:11.530Z,11.55
2023-03-07T21:51:41.641Z,11.40
2023-03-07T21:54:09.059Z,11.58
2023-03-07T21:56:35.837Z,11.71
2023-03-07T21:59:03.140Z,11.81
2023-03-07T22:01:30.325Z,12.07
2023-03-07T22:03:58.153Z,12.08
2023-03-07T22:06:25.055Z,12.48
2023-03-07T22:08:52.939Z,12.36
2023-03-07T22:11:20.084Z,12.64
2023-03-07T22:13:47.326Z,12.49
2023-03-07T22:16:16.272Z,12.29
2023-03-07T22:18:43.263Z,12.65
2023-03-07T22:21:11.514Z,12.60
2023-03-07T22:23:40.561Z,13.34
2023-03-07T22:26:08.043Z,13.10
2023-03-07T22:28:36.378Z,12.98
2023-03-07T22:31:05.022Z,12.97
2023-03-07T22:33:31.831Z,13.04
2023-03-07T22:35:59.543Z,13.17
2023-03-07T22:38:26.442Z,13.09
2023-03-07T22:40:53.620Z,13.15
2023-03-07T22:43:20.485Z,13.41
2023-03-07T22:45:50.240Z,13.52
2023-03-07T22:48:17.496Z,13.32
2023-03-07T22:50:44.804Z,13.39
2023-03-07T22:53:13.438Z,13.36
2023-03-07T22:55:44.585Z,13.49
2023-03-07T22:58:11.958Z,13.27
2023-03-07T23:00:42.907Z,13.89
2023-03-07T23:03:10.093Z,13.64
2023-03-07T23:05:37.077Z,13.82
2023-03-07T23:08:04.565Z,13.63
2023-03-07T23:10:31.451Z,13.84
2023-03-07T23:12:58.291Z,13.72
2023-03-07T23:15:25.577Z,13.63
2023-03-07T23:17:52.320Z,14.13
2023-03-07T23:20:21.069Z,13.99
2023-03-07T23:22:48.145Z,14.08
2023-03-07T23:25:16.432Z,13.79
2023-03-07T23:27:46.073Z,13.56
2023-03-07T23:30:13.656Z,14.13
2023-03-07T23:32:41.475Z,13.61
2023-03-07T23:35:09.214Z,13.51
2023-03-07T23:37:41.850Z,13.00
2023-03-07T23:40:09.800Z,13.15
2023-03-07T23:42:37.290Z,13.21
2023-03-07T23:45:07.555Z,13.32
2023-03-07T23:47:35.491Z,12.91
2023-03-07T23:50:05.607Z,13.30
2023-03-07T23:52:34.218Z,13.54
2023-03-07T23:55:00.944Z,13.19
2023-03-07T23:57:28.038Z,12.39
2023-03-07T23:59:55.743Z,12.67
